North Bend, OR

1:14 PM PDT on September 22, 2014 (GMT -0700)
Edd Family | Change Station
CLOSE
Current Station
Personal Weather Station
Location: North Bend, OR
Elevation: 190 ft
Nearby Weather Stations

Elev 190 ft 43.40 °N, 124.25 °W | Updated 10 seconds ago

Mostly Cloudy
Mostly Cloudy
71.2 °F
Feels Like 75 °F
N
4.0
Wind Variable Wind from West
Gusts 9.8 mph

Today
High -- | Low -- °F
--% Chance of Precip.
Yesterday
High -- | Low -- °F
Precip. -- in
7:04 AM 7:14 PM
Waning Crescent, 2% visible
Pressure 30.02 in
Visibility 10.0 miles
Clouds Mostly Cloudy 2600 ft
Heat Index 75 °F
Dew Point 58 °F
Humidity 64%
Rainfall 0.00 in
Snow Depth 0 in , 1 in , 0 in
UV 4 out of 12
Pollen 1.60 out of 12
Air Quality Not available.
Flu Activity Not available.
METAR KOTH 221955Z 28009KT 10SM BKN026 19/15 A3002 RMK AO1

More Conditions Fewer Conditions

Pressure 30.02 in
Visibility 10.0 miles
Clouds Mostly Cloudy 2600 ft
Heat Index 75 °F
Dew Point 58 °F
Humidity 64%
Rainfall 0.00 in
Snow Depth 0 in , 1 in , 0 in
UV 4 out of 12
Pollen 1.60 out of 12
Air Quality Not available.
Flu Activity Not available.
METAR KOTH 221955Z 28009KT 10SM BKN026 19/15 A3002 RMK AO1

More Conditions Fewer Conditions

10-Day Weather Forecast

Almanac

Astronomy

Sep. 22, 2014 Rise Set
Actual Time 7:04 AM PDT 7:14 PM PDT
Civil Twilight 6:35 AM PDT 7:42 PM PDT
Nautical Twilight 6:02 AM PDT 8:15 PM PDT
Astronomical Twilight 5:27 AM PDT 8:50 PM PDT
Moon 5:36 AM PDT 6:25 PM PDT
Length of Visible Light 13h 06m
Length of Day
12h 09m
Tomorrow will be 2m 57s shorter.
Waning Crescent, 2% of the Moon is Illuminated
Today
Waning Crescent
Sep 24
New
Oct 1
First Quarter
Oct 8
Full
Oct 15
Last Quarter

Today's Extremes

State Highs State Lows

Community

WunderPhotos

Upload Photos

1,755,519 photos uploaded!

WunderBlogs® & News

Nearby

Snow Depth

Station Depth Elevation
Seine Creek 0 in 2000 ft
Greenpoint 1 in 3200 ft
Mt. Howard 0 in 7910 ft
Santiam Junction 0 in 3750 ft
Bourne 0 in 5800 ft

Earthquake Activity

City Distance Mag. Time & Date
No recent earthquake activity has been reported nearby.
Minimum magnitude displayed is 2.5.

Coastal Water Temperatures

Place Temperature
Port Orford, OR 55.9 °F
Charleston, OR 59.0 °F
South Beach, OR 55.0 °F

Nearby Weather Stations